Terminal Aerodrome Forecast
Issued by NWS

Home | Current Version | Previous Version | Text Only | Print | Product List | Glossary On
Versions: 1 2 3 4 5 6 7 8 9 10 11 12 13 14 15
000
FTUS45 KABQ 230035 AAA
TAFGUP
TAF AMD
KGUP 230035Z 2301/2324 23018G28KT P6SM SCT060 BKN100
     FM230600 23015G25KT P6SM SCT100 SCT150
     FM231700 24018G28KT P6SM SCT060
     FM232000 26020G30KT P6SM FEW060=

USA.gov is the U.S. government's official web portal to all federal, state and local government web resources and services.